sensor_id;sensor_type;location;lat;lon;timestamp;P1;durP1;ratioP1;P2;durP2;ratioP2
37383;SDS011;23258;49.718;11.082;2022-12-18T00:00:27;28.57;;;21.43;;
37383;SDS011;23258;49.718;11.082;2022-12-18T00:02:57;25.33;;;19.23;;
37383;SDS011;23258;49.718;11.082;2022-12-18T00:05:29;29.23;;;20.60;;
37383;SDS011;23258;49.718;11.082;2022-12-18T00:07:59;31.03;;;19.70;;
37383;SDS011;23258;49.718;11.082;2022-12-18T00:10:34;30.00;;;19.50;;
37383;SDS011;23258;49.718;11.082;2022-12-18T00:13:04;36.40;;;21.60;;
37383;SDS011;23258;49.718;11.082;2022-12-18T00:15:36;30.47;;;20.03;;
37383;SDS011;23258;49.718;11.082;2022-12-18T00:18:06;32.20;;;21.10;;
37383;SDS011;23258;49.718;11.082;2022-12-18T00:20:38;31.33;;;19.53;;
37383;SDS011;23258;49.718;11.082;2022-12-18T00:23:08;27.13;;;19.67;;
37383;SDS011;23258;49.718;11.082;2022-12-18T00:25:37;30.40;;;19.73;;
37383;SDS011;23258;49.718;11.082;2022-12-18T00:28:07;27.00;;;19.27;;
37383;SDS011;23258;49.718;11.082;2022-12-18T00:30:36;35.63;;;20.63;;
37383;SDS011;23258;49.718;11.082;2022-12-18T00:33:06;31.17;;;19.63;;
37383;SDS011;23258;49.718;11.082;2022-12-18T00:35:39;30.77;;;19.33;;
37383;SDS011;23258;49.718;11.082;2022-12-18T00:38:09;30.90;;;21.97;;
37383;SDS011;23258;49.718;11.082;2022-12-18T00:40:38;27.63;;;18.63;;
37383;SDS011;23258;49.718;11.082;2022-12-18T00:43:11;33.40;;;22.30;;
37383;SDS011;23258;49.718;11.082;2022-12-18T00:45:38;27.87;;;20.07;;
37383;SDS011;23258;49.718;11.082;2022-12-18T00:48:09;26.00;;;18.73;;
37383;SDS011;23258;49.718;11.082;2022-12-18T00:50:41;27.40;;;19.00;;
37383;SDS011;23258;49.718;11.082;2022-12-18T00:53:11;20.83;;;15.83;;
37383;SDS011;23258;49.718;11.082;2022-12-18T00:55:41;27.80;;;17.23;;
37383;SDS011;23258;49.718;11.082;2022-12-18T00:58:10;23.43;;;17.43;;
37383;SDS011;23258;49.718;11.082;2022-12-18T01:00:40;30.20;;;20.20;;
37383;SDS011;23258;49.718;11.082;2022-12-18T01:03:10;25.17;;;18.50;;
37383;SDS011;23258;49.718;11.082;2022-12-18T01:05:45;24.47;;;15.77;;
37383;SDS011;23258;49.718;11.082;2022-12-18T01:08:17;24.53;;;17.20;;
37383;SDS011;23258;49.718;11.082;2022-12-18T01:10:47;26.40;;;18.20;;
37383;SDS011;23258;49.718;11.082;2022-12-18T01:13:16;22.87;;;18.67;;
37383;SDS011;23258;49.718;11.082;2022-12-18T01:15:49;28.30;;;19.43;;
37383;SDS011;23258;49.718;11.082;2022-12-18T01:18:18;28.47;;;19.83;;
37383;SDS011;23258;49.718;11.082;2022-12-18T01:20:52;30.30;;;20.47;;
37383;SDS011;23258;49.718;11.082;2022-12-18T01:23:22;32.97;;;20.73;;
37383;SDS011;23258;49.718;11.082;2022-12-18T01:25:51;31.20;;;20.67;;
37383;SDS011;23258;49.718;11.082;2022-12-18T01:28:21;31.77;;;19.83;;
37383;SDS011;23258;49.718;11.082;2022-12-18T01:30:50;31.27;;;18.87;;
37383;SDS011;23258;49.718;11.082;2022-12-18T01:33:20;31.10;;;22.43;;
37383;SDS011;23258;49.718;11.082;2022-12-18T01:35:53;33.43;;;21.73;;
37383;SDS011;23258;49.718;11.082;2022-12-18T01:38:22;38.07;;;21.13;;
37383;SDS011;23258;49.718;11.082;2022-12-18T01:40:56;34.83;;;20.60;;
37383;SDS011;23258;49.718;11.082;2022-12-18T01:43:40;32.87;;;21.63;;
37383;SDS011;23258;49.718;11.082;2022-12-18T01:46:10;27.77;;;20.53;;
37383;SDS011;23258;49.718;11.082;2022-12-18T01:48:40;24.83;;;19.80;;
37383;SDS011;23258;49.718;11.082;2022-12-18T01:51:12;26.90;;;19.60;;
37383;SDS011;23258;49.718;11.082;2022-12-18T01:53:42;28.03;;;19.07;;
37383;SDS011;23258;49.718;11.082;2022-12-18T01:56:14;24.77;;;18.70;;
37383;SDS011;23258;49.718;11.082;2022-12-18T01:58:46;32.30;;;22.13;;
37383;SDS011;23258;49.718;11.082;2022-12-18T02:01:17;30.50;;;19.50;;
37383;SDS011;23258;49.718;11.082;2022-12-18T02:03:47;28.93;;;17.63;;
37383;SDS011;23258;49.718;11.082;2022-12-18T02:06:20;28.87;;;17.37;;
37383;SDS011;23258;49.718;11.082;2022-12-18T02:08:58;23.53;;;16.33;;
37383;SDS011;23258;49.718;11.082;2022-12-18T02:11:36;24.23;;;17.33;;
37383;SDS011;23258;49.718;11.082;2022-12-18T02:14:12;25.67;;;13.90;;
37383;SDS011;23258;49.718;11.082;2022-12-18T02:16:48;19.60;;;14.23;;
37383;SDS011;23258;49.718;11.082;2022-12-18T02:19:27;20.30;;;13.47;;
37383;SDS011;23258;49.718;11.082;2022-12-18T02:22:06;15.33;;;11.97;;
37383;SDS011;23258;49.718;11.082;2022-12-18T02:24:42;19.10;;;12.30;;
37383;SDS011;23258;49.718;11.082;2022-12-18T02:27:17;18.87;;;11.97;;
37383;SDS011;23258;49.718;11.082;2022-12-18T02:29:49;13.77;;;10.53;;
37383;SDS011;23258;49.718;11.082;2022-12-18T02:32:27;21.37;;;11.13;;
37383;SDS011;23258;49.718;11.082;2022-12-18T02:34:57;12.63;;;10.87;;
37383;SDS011;23258;49.718;11.082;2022-12-18T02:37:29;14.63;;;10.43;;
37383;SDS011;23258;49.718;11.082;2022-12-18T02:40:01;14.43;;;10.50;;
37383;SDS011;23258;49.718;11.082;2022-12-18T02:42:37;13.87;;;11.63;;
37383;SDS011;23258;49.718;11.082;2022-12-18T02:45:09;16.73;;;11.80;;
37383;SDS011;23258;49.718;11.082;2022-12-18T02:47:39;20.93;;;12.67;;
37383;SDS011;23258;49.718;11.082;2022-12-18T02:50:13;16.93;;;11.70;;
37383;SDS011;23258;49.718;11.082;2022-12-18T02:52:49;20.53;;;13.90;;
37383;SDS011;23258;49.718;11.082;2022-12-18T02:55:28;19.40;;;12.20;;
37383;SDS011;23258;49.718;11.082;2022-12-18T02:58:09;24.37;;;13.63;;
37383;SDS011;23258;49.718;11.082;2022-12-18T03:00:41;19.37;;;12.97;;
37383;SDS011;23258;49.718;11.082;2022-12-18T03:03:14;17.83;;;14.07;;
37383;SDS011;23258;49.718;11.082;2022-12-18T03:05:47;17.70;;;12.60;;
37383;SDS011;23258;49.718;11.082;2022-12-18T03:08:18;21.10;;;13.63;;
37383;SDS011;23258;49.718;11.082;2022-12-18T03:10:50;21.07;;;15.03;;
37383;SDS011;23258;49.718;11.082;2022-12-18T03:13:25;19.00;;;14.27;;
37383;SDS011;23258;49.718;11.082;2022-12-18T03:15:57;24.23;;;16.60;;
37383;SDS011;23258;49.718;11.082;2022-12-18T03:18:30;20.70;;;16.57;;
37383;SDS011;23258;49.718;11.082;2022-12-18T03:21:02;19.07;;;16.53;;
37383;SDS011;23258;49.718;11.082;2022-12-18T03:23:36;22.47;;;17.47;;
37383;SDS011;23258;49.718;11.082;2022-12-18T03:26:09;26.80;;;16.63;;
37383;SDS011;23258;49.718;11.082;2022-12-18T03:28:43;26.83;;;16.30;;
37383;SDS011;23258;49.718;11.082;2022-12-18T03:31:16;25.53;;;17.43;;
37383;SDS011;23258;49.718;11.082;2022-12-18T03:33:51;29.40;;;16.57;;
37383;SDS011;23258;49.718;11.082;2022-12-18T03:36:27;18.83;;;14.27;;
37383;SDS011;23258;49.718;11.082;2022-12-18T03:39:00;17.03;;;13.23;;
37383;SDS011;23258;49.718;11.082;2022-12-18T03:41:35;22.83;;;15.53;;
37383;SDS011;23258;49.718;11.082;2022-12-18T03:44:29;28.13;;;15.10;;
37383;SDS011;23258;49.718;11.082;2022-12-18T03:47:01;26.27;;;14.90;;
37383;SDS011;23258;49.718;11.082;2022-12-18T03:49:34;22.13;;;14.70;;
37383;SDS011;23258;49.718;11.082;2022-12-18T03:52:06;27.70;;;15.03;;
37383;SDS011;23258;49.718;11.082;2022-12-18T03:54:39;22.63;;;15.27;;
37383;SDS011;23258;49.718;11.082;2022-12-18T03:57:14;20.30;;;15.07;;
37383;SDS011;23258;49.718;11.082;2022-12-18T03:59:50;23.03;;;15.70;;
37383;SDS011;23258;49.718;11.082;2022-12-18T04:02:25;26.03;;;18.30;;
37383;SDS011;23258;49.718;11.082;2022-12-18T04:04:58;28.77;;;18.83;;
37383;SDS011;23258;49.718;11.082;2022-12-18T04:07:28;32.73;;;18.47;;
37383;SDS011;23258;49.718;11.082;2022-12-18T04:09:58;26.03;;;18.97;;
37383;SDS011;23258;49.718;11.082;2022-12-18T04:12:30;23.60;;;18.37;;
37383;SDS011;23258;49.718;11.082;2022-12-18T04:15:02;28.47;;;19.80;;
37383;SDS011;23258;49.718;11.082;2022-12-18T04:17:32;33.40;;;21.23;;
37383;SDS011;23258;49.718;11.082;2022-12-18T04:20:03;27.27;;;18.33;;
37383;SDS011;23258;49.718;11.082;2022-12-18T04:22:34;27.97;;;19.87;;
37383;SDS011;23258;49.718;11.082;2022-12-18T04:25:04;31.40;;;19.90;;
37383;SDS011;23258;49.718;11.082;2022-12-18T04:27:37;32.53;;;20.23;;
37383;SDS011;23258;49.718;11.082;2022-12-18T04:30:10;26.93;;;19.40;;
37383;SDS011;23258;49.718;11.082;2022-12-18T04:32:40;26.13;;;18.27;;
37383;SDS011;23258;49.718;11.082;2022-12-18T04:35:18;35.60;;;19.40;;
37383;SDS011;23258;49.718;11.082;2022-12-18T04:37:48;32.60;;;21.57;;
37383;SDS011;23258;49.718;11.082;2022-12-18T04:40:17;22.47;;;17.57;;
37383;SDS011;23258;49.718;11.082;2022-12-18T04:42:47;24.87;;;17.97;;
37383;SDS011;23258;49.718;11.082;2022-12-18T04:45:20;23.17;;;17.23;;
37383;SDS011;23258;49.718;11.082;2022-12-18T04:47:49;27.20;;;19.37;;
37383;SDS011;23258;49.718;11.082;2022-12-18T04:50:18;28.00;;;18.17;;
37383;SDS011;23258;49.718;11.082;2022-12-18T04:52:48;31.37;;;19.97;;
37383;SDS011;23258;49.718;11.082;2022-12-18T04:55:18;28.20;;;19.40;;
37383;SDS011;23258;49.718;11.082;2022-12-18T04:57:48;26.10;;;18.83;;
37383;SDS011;23258;49.718;11.082;2022-12-18T05:00:20;26.30;;;18.07;;
37383;SDS011;23258;49.718;11.082;2022-12-18T05:02:51;20.43;;;15.17;;
37383;SDS011;23258;49.718;11.082;2022-12-18T05:05:20;24.23;;;17.37;;
37383;SDS011;23258;49.718;11.082;2022-12-18T05:07:50;19.13;;;13.87;;
37383;SDS011;23258;49.718;11.082;2022-12-18T05:10:19;20.17;;;13.50;;
37383;SDS011;23258;49.718;11.082;2022-12-18T05:12:49;17.57;;;13.30;;
37383;SDS011;23258;49.718;11.082;2022-12-18T05:15:36;18.47;;;11.77;;
37383;SDS011;23258;49.718;11.082;2022-12-18T05:18:07;20.20;;;12.27;;
37383;SDS011;23258;49.718;11.082;2022-12-18T05:20:36;15.43;;;10.87;;
37383;SDS011;23258;49.718;11.082;2022-12-18T05:23:06;16.37;;;12.17;;
37383;SDS011;23258;49.718;11.082;2022-12-18T05:25:35;15.73;;;12.27;;
37383;SDS011;23258;49.718;11.082;2022-12-18T05:28:05;26.23;;;14.27;;
37383;SDS011;23258;49.718;11.082;2022-12-18T05:30:37;16.23;;;12.33;;
37383;SDS011;23258;49.718;11.082;2022-12-18T05:33:07;18.03;;;11.07;;
37383;SDS011;23258;49.718;11.082;2022-12-18T05:35:36;21.27;;;12.93;;
37383;SDS011;23258;49.718;11.082;2022-12-18T05:38:06;16.70;;;11.73;;
37383;SDS011;23258;49.718;11.082;2022-12-18T05:40:35;16.07;;;11.60;;
37383;SDS011;23258;49.718;11.082;2022-12-18T05:43:05;18.47;;;11.50;;
37383;SDS011;23258;49.718;11.082;2022-12-18T05:45:39;14.37;;;10.97;;
37383;SDS011;23258;49.718;11.082;2022-12-18T05:48:09;17.23;;;12.03;;
37383;SDS011;23258;49.718;11.082;2022-12-18T05:50:40;14.70;;;10.57;;
37383;SDS011;23258;49.718;11.082;2022-12-18T05:53:10;17.70;;;11.63;;
37383;SDS011;23258;49.718;11.082;2022-12-18T05:55:41;15.60;;;10.50;;
37383;SDS011;23258;49.718;11.082;2022-12-18T05:58:11;13.83;;;9.57;;
37383;SDS011;23258;49.718;11.082;2022-12-18T06:00:45;18.30;;;10.87;;
37383;SDS011;23258;49.718;11.082;2022-12-18T06:03:14;16.63;;;10.80;;
37383;SDS011;23258;49.718;11.082;2022-12-18T06:05:44;13.83;;;10.17;;
37383;SDS011;23258;49.718;11.082;2022-12-18T06:08:14;14.80;;;10.70;;
37383;SDS011;23258;49.718;11.082;2022-12-18T06:10:49;19.70;;;12.30;;
37383;SDS011;23258;49.718;11.082;2022-12-18T06:13:18;13.67;;;11.07;;
37383;SDS011;23258;49.718;11.082;2022-12-18T06:15:50;17.27;;;12.00;;
37383;SDS011;23258;49.718;11.082;2022-12-18T06:18:20;13.20;;;10.57;;
37383;SDS011;23258;49.718;11.082;2022-12-18T06:20:54;18.57;;;11.43;;
37383;SDS011;23258;49.718;11.082;2022-12-18T06:23:24;16.00;;;11.40;;
37383;SDS011;23258;49.718;11.082;2022-12-18T06:25:53;18.40;;;11.03;;
37383;SDS011;23258;49.718;11.082;2022-12-18T06:28:23;15.77;;;11.13;;
37383;SDS011;23258;49.718;11.082;2022-12-18T06:30:55;18.10;;;11.87;;
37383;SDS011;23258;49.718;11.082;2022-12-18T06:33:25;19.03;;;12.30;;
37383;SDS011;23258;49.718;11.082;2022-12-18T06:35:59;15.60;;;10.57;;
37383;SDS011;23258;49.718;11.082;2022-12-18T06:38:29;12.70;;;9.20;;
37383;SDS011;23258;49.718;11.082;2022-12-18T06:40:59;17.83;;;10.13;;
37383;SDS011;23258;49.718;11.082;2022-12-18T06:43:28;13.17;;;9.33;;
37383;SDS011;23258;49.718;11.082;2022-12-18T06:46:01;18.00;;;9.93;;
37383;SDS011;23258;49.718;11.082;2022-12-18T06:48:32;13.67;;;9.77;;
37383;SDS011;23258;49.718;11.082;2022-12-18T06:51:02;13.37;;;9.50;;
37383;SDS011;23258;49.718;11.082;2022-12-18T06:53:31;18.13;;;12.57;;
37383;SDS011;23258;49.718;11.082;2022-12-18T06:56:01;16.03;;;11.83;;
37383;SDS011;23258;49.718;11.082;2022-12-18T06:58:35;15.50;;;11.63;;
37383;SDS011;23258;49.718;11.082;2022-12-18T07:01:08;22.60;;;12.80;;
37383;SDS011;23258;49.718;11.082;2022-12-18T07:03:39;20.67;;;13.37;;
37383;SDS011;23258;49.718;11.082;2022-12-18T07:06:14;26.50;;;15.10;;
37383;SDS011;23258;49.718;11.082;2022-12-18T07:08:44;25.17;;;15.83;;
37383;SDS011;23258;49.718;11.082;2022-12-18T07:11:14;22.60;;;15.43;;
37383;SDS011;23258;49.718;11.082;2022-12-18T07:13:44;23.37;;;16.60;;
37383;SDS011;23258;49.718;11.082;2022-12-18T07:16:17;27.87;;;16.47;;
37383;SDS011;23258;49.718;11.082;2022-12-18T07:18:50;27.60;;;17.33;;
37383;SDS011;23258;49.718;11.082;2022-12-18T07:21:20;21.10;;;14.23;;
37383;SDS011;23258;49.718;11.082;2022-12-18T07:23:50;17.80;;;12.40;;
37383;SDS011;23258;49.718;11.082;2022-12-18T07:26:20;18.93;;;12.07;;
37383;SDS011;23258;49.718;11.082;2022-12-18T07:28:50;21.13;;;13.00;;
37383;SDS011;23258;49.718;11.082;2022-12-18T07:31:26;17.73;;;12.50;;
37383;SDS011;23258;49.718;11.082;2022-12-18T07:33:56;20.23;;;13.03;;
37383;SDS011;23258;49.718;11.082;2022-12-18T07:36:26;15.97;;;11.30;;
37383;SDS011;23258;49.718;11.082;2022-12-18T07:38:55;20.33;;;12.97;;
37383;SDS011;23258;49.718;11.082;2022-12-18T07:41:25;24.53;;;15.30;;
37383;SDS011;23258;49.718;11.082;2022-12-18T07:43:54;15.63;;;13.20;;
37383;SDS011;23258;49.718;11.082;2022-12-18T07:46:26;18.23;;;12.67;;
37383;SDS011;23258;49.718;11.082;2022-12-18T07:48:56;26.93;;;19.00;;
37383;SDS011;23258;49.718;11.082;2022-12-18T07:51:26;21.03;;;17.10;;
37383;SDS011;23258;49.718;11.082;2022-12-18T07:53:55;21.30;;;17.80;;
37383;SDS011;23258;49.718;11.082;2022-12-18T07:56:25;26.03;;;20.40;;
37383;SDS011;23258;49.718;11.082;2022-12-18T07:58:57;31.33;;;19.43;;
37383;SDS011;23258;49.718;11.082;2022-12-18T08:01:29;27.43;;;18.53;;
37383;SDS011;23258;49.718;11.082;2022-12-18T08:03:59;28.07;;;20.13;;
37383;SDS011;23258;49.718;11.082;2022-12-18T08:06:29;30.83;;;23.73;;
37383;SDS011;23258;49.718;11.082;2022-12-18T08:08:58;27.43;;;22.07;;
37383;SDS011;23258;49.718;11.082;2022-12-18T08:11:28;19.57;;;15.10;;
37383;SDS011;23258;49.718;11.082;2022-12-18T08:13:57;27.47;;;20.37;;
37383;SDS011;23258;49.718;11.082;2022-12-18T08:16:29;28.17;;;19.43;;
37383;SDS011;23258;49.718;11.082;2022-12-18T08:18:59;25.37;;;18.97;;
37383;SDS011;23258;49.718;11.082;2022-12-18T08:21:30;27.37;;;18.93;;
37383;SDS011;23258;49.718;11.082;2022-12-18T08:24:00;25.37;;;17.87;;
37383;SDS011;23258;49.718;11.082;2022-12-18T08:26:30;26.20;;;18.33;;
37383;SDS011;23258;49.718;11.082;2022-12-18T08:29:00;21.80;;;17.50;;
37383;SDS011;23258;49.718;11.082;2022-12-18T08:31:32;21.80;;;17.53;;
37383;SDS011;23258;49.718;11.082;2022-12-18T08:34:02;28.23;;;19.97;;
37383;SDS011;23258;49.718;11.082;2022-12-18T08:36:31;27.43;;;19.20;;
37383;SDS011;23258;49.718;11.082;2022-12-18T08:39:01;26.07;;;18.97;;
37383;SDS011;23258;49.718;11.082;2022-12-18T08:41:31;25.57;;;19.67;;
37383;SDS011;23258;49.718;11.082;2022-12-18T08:44:00;27.23;;;20.37;;
37383;SDS011;23258;49.718;11.082;2022-12-18T08:46:47;24.97;;;20.07;;
37383;SDS011;23258;49.718;11.082;2022-12-18T08:49:17;32.50;;;23.43;;
37383;SDS011;23258;49.718;11.082;2022-12-18T08:51:46;28.93;;;21.60;;
37383;SDS011;23258;49.718;11.082;2022-12-18T08:54:16;27.53;;;21.03;;
37383;SDS011;23258;49.718;11.082;2022-12-18T08:56:45;23.90;;;20.07;;
37383;SDS011;23258;49.718;11.082;2022-12-18T08:59:16;23.90;;;19.40;;
37383;SDS011;23258;49.718;11.082;2022-12-18T09:01:48;19.83;;;17.73;;
37383;SDS011;23258;49.718;11.082;2022-12-18T09:04:18;25.13;;;18.37;;
37383;SDS011;23258;49.718;11.082;2022-12-18T09:06:48;28.47;;;18.77;;
37383;SDS011;23258;49.718;11.082;2022-12-18T09:09:17;28.17;;;18.23;;
37383;SDS011;23258;49.718;11.082;2022-12-18T09:11:47;29.67;;;19.30;;
37383;SDS011;23258;49.718;11.082;2022-12-18T09:14:17;27.50;;;18.27;;
37383;SDS011;23258;49.718;11.082;2022-12-18T09:16:49;24.83;;;18.20;;
37383;SDS011;23258;49.718;11.082;2022-12-18T09:19:19;30.97;;;22.33;;
37383;SDS011;23258;49.718;11.082;2022-12-18T09:21:48;26.07;;;18.40;;
37383;SDS011;23258;49.718;11.082;2022-12-18T09:24:18;21.57;;;18.17;;
37383;SDS011;23258;49.718;11.082;2022-12-18T09:26:47;28.73;;;18.93;;
37383;SDS011;23258;49.718;11.082;2022-12-18T09:29:26;27.20;;;18.60;;
37383;SDS011;23258;49.718;11.082;2022-12-18T09:31:58;25.30;;;18.50;;
37383;SDS011;23258;49.718;11.082;2022-12-18T09:34:28;26.40;;;19.10;;
37383;SDS011;23258;49.718;11.082;2022-12-18T09:36:57;21.37;;;17.93;;
37383;SDS011;23258;49.718;11.082;2022-12-18T09:39:27;22.33;;;16.00;;
37383;SDS011;23258;49.718;11.082;2022-12-18T09:41:57;23.50;;;15.00;;
37383;SDS011;23258;49.718;11.082;2022-12-18T09:44:28;24.23;;;16.37;;
37383;SDS011;23258;49.718;11.082;2022-12-18T09:47:09;23.13;;;15.83;;
37383;SDS011;23258;49.718;11.082;2022-12-18T09:49:41;30.27;;;15.30;;
37383;SDS011;23258;49.718;11.082;2022-12-18T09:52:12;24.20;;;16.60;;
37383;SDS011;23258;49.718;11.082;2022-12-18T09:54:44;24.33;;;16.30;;
37383;SDS011;23258;49.718;11.082;2022-12-18T09:57:17;23.50;;;15.03;;
37383;SDS011;23258;49.718;11.082;2022-12-18T09:59:48;28.33;;;16.40;;
37383;SDS011;23258;49.718;11.082;2022-12-18T10:02:22;22.50;;;15.57;;
37383;SDS011;23258;49.718;11.082;2022-12-18T10:05:03;24.73;;;15.13;;
37383;SDS011;23258;49.718;11.082;2022-12-18T10:07:36;21.67;;;15.37;;
37383;SDS011;23258;49.718;11.082;2022-12-18T10:10:13;23.43;;;16.60;;
37383;SDS011;23258;49.718;11.082;2022-12-18T10:12:46;25.73;;;16.27;;
37383;SDS011;23258;49.718;11.082;2022-12-18T10:15:23;22.57;;;14.33;;
37383;SDS011;23258;49.718;11.082;2022-12-18T10:17:58;21.70;;;13.77;;
37383;SDS011;23258;49.718;11.082;2022-12-18T10:20:32;18.10;;;12.63;;
37383;SDS011;23258;49.718;11.082;2022-12-18T10:23:11;20.50;;;12.57;;
37383;SDS011;23258;49.718;11.082;2022-12-18T10:25:46;21.00;;;12.00;;
37383;SDS011;23258;49.718;11.082;2022-12-18T10:28:18;17.77;;;12.03;;
37383;SDS011;23258;49.718;11.082;2022-12-18T10:30:48;18.07;;;12.60;;
37383;SDS011;23258;49.718;11.082;2022-12-18T10:33:21;18.83;;;11.47;;
37383;SDS011;23258;49.718;11.082;2022-12-18T10:35:51;19.70;;;11.70;;
37383;SDS011;23258;49.718;11.082;2022-12-18T10:38:21;15.40;;;11.30;;
37383;SDS011;23258;49.718;11.082;2022-12-18T10:40:52;17.63;;;11.83;;
37383;SDS011;23258;49.718;11.082;2022-12-18T10:43:23;17.23;;;11.43;;
37383;SDS011;23258;49.718;11.082;2022-12-18T10:46:03;24.60;;;12.83;;
37383;SDS011;23258;49.718;11.082;2022-12-18T10:48:39;15.47;;;9.40;;
37383;SDS011;23258;49.718;11.082;2022-12-18T10:51:09;18.53;;;11.50;;
37383;SDS011;23258;49.718;11.082;2022-12-18T10:53:51;17.07;;;11.50;;
37383;SDS011;23258;49.718;11.082;2022-12-18T10:56:21;15.50;;;11.37;;
37383;SDS011;23258;49.718;11.082;2022-12-18T10:58:57;15.40;;;10.93;;
37383;SDS011;23258;49.718;11.082;2022-12-18T11:01:27;20.40;;;12.80;;
37383;SDS011;23258;49.718;11.082;2022-12-18T11:04:07;12.57;;;9.40;;
37383;SDS011;23258;49.718;11.082;2022-12-18T11:06:52;15.07;;;10.40;;
37383;SDS011;23258;49.718;11.082;2022-12-18T11:09:23;20.13;;;12.80;;
37383;SDS011;23258;49.718;11.082;2022-12-18T11:11:53;23.10;;;15.23;;
37383;SDS011;23258;49.718;11.082;2022-12-18T11:14:24;17.53;;;11.80;;
37383;SDS011;23258;49.718;11.082;2022-12-18T11:16:54;14.17;;;10.33;;
37383;SDS011;23258;49.718;11.082;2022-12-18T11:19:46;15.97;;;10.50;;
37383;SDS011;23258;49.718;11.082;2022-12-18T11:22:22;16.20;;;10.43;;
37383;SDS011;23258;49.718;11.082;2022-12-18T11:24:55;15.50;;;10.90;;
37383;SDS011;23258;49.718;11.082;2022-12-18T11:27:47;17.97;;;10.17;;
37383;SDS011;23258;49.718;11.082;2022-12-18T11:30:21;15.80;;;10.63;;
37383;SDS011;23258;49.718;11.082;2022-12-18T11:32:52;14.93;;;10.33;;
37383;SDS011;23258;49.718;11.082;2022-12-18T11:35:27;14.37;;;9.07;;
37383;SDS011;23258;49.718;11.082;2022-12-18T11:37:59;19.17;;;10.93;;
37383;SDS011;23258;49.718;11.082;2022-12-18T11:40:33;16.17;;;9.53;;
37383;SDS011;23258;49.718;11.082;2022-12-18T11:43:08;10.43;;;8.27;;
37383;SDS011;23258;49.718;11.082;2022-12-18T11:45:40;13.93;;;9.10;;
37383;SDS011;23258;49.718;11.082;2022-12-18T11:48:12;13.63;;;8.07;;
37383;SDS011;23258;49.718;11.082;2022-12-18T11:50:48;11.33;;;8.17;;
37383;SDS011;23258;49.718;11.082;2022-12-18T11:53:19;13.50;;;9.40;;
37383;SDS011;23258;49.718;11.082;2022-12-18T11:55:58;12.17;;;8.47;;
37383;SDS011;23258;49.718;11.082;2022-12-18T11:58:34;12.77;;;8.77;;
37383;SDS011;23258;49.718;11.082;2022-12-18T12:01:11;15.17;;;8.97;;
37383;SDS011;23258;49.718;11.082;2022-12-18T12:03:54;13.50;;;9.33;;
37383;SDS011;23258;49.718;11.082;2022-12-18T12:06:30;12.70;;;8.47;;
37383;SDS011;23258;49.718;11.082;2022-12-18T12:09:06;10.40;;;8.20;;
37383;SDS011;23258;49.718;11.082;2022-12-18T12:11:41;13.43;;;8.83;;
37383;SDS011;23258;49.718;11.082;2022-12-18T12:17:01;16.03;;;8.77;;
37383;SDS011;23258;49.718;11.082;2022-12-18T12:19:35;14.17;;;9.43;;
37383;SDS011;23258;49.718;11.082;2022-12-18T12:22:10;13.03;;;8.33;;
37383;SDS011;23258;49.718;11.082;2022-12-18T12:24:46;15.10;;;8.23;;
37383;SDS011;23258;49.718;11.082;2022-12-18T12:27:19;13.27;;;8.30;;
37383;SDS011;23258;49.718;11.082;2022-12-18T12:29:55;11.07;;;8.10;;
37383;SDS011;23258;49.718;11.082;2022-12-18T12:32:32;12.17;;;8.27;;
37383;SDS011;23258;49.718;11.082;2022-12-18T12:35:09;11.93;;;7.90;;
37383;SDS011;23258;49.718;11.082;2022-12-18T12:37:47;12.00;;;7.40;;
37383;SDS011;23258;49.718;11.082;2022-12-18T12:40:20;10.77;;;7.50;;
37383;SDS011;23258;49.718;11.082;2022-12-18T12:43:19;11.07;;;7.17;;
37383;SDS011;23258;49.718;11.082;2022-12-18T12:45:50;12.43;;;7.40;;
37383;SDS011;23258;49.718;11.082;2022-12-18T12:48:32;12.43;;;8.40;;
37383;SDS011;23258;49.718;11.082;2022-12-18T12:51:06;10.50;;;7.70;;
37383;SDS011;23258;49.718;11.082;2022-12-18T12:53:40;11.87;;;7.90;;
37383;SDS011;23258;49.718;11.082;2022-12-18T12:56:12;12.93;;;8.53;;
37383;SDS011;23258;49.718;11.082;2022-12-18T12:58:48;11.20;;;7.63;;
37383;SDS011;23258;49.718;11.082;2022-12-18T13:01:23;12.73;;;7.97;;
37383;SDS011;23258;49.718;11.082;2022-12-18T13:04:02;9.03;;;7.50;;
37383;SDS011;23258;49.718;11.082;2022-12-18T13:06:35;10.80;;;7.77;;
37383;SDS011;23258;49.718;11.082;2022-12-18T13:09:32;10.63;;;7.67;;
37383;SDS011;23258;49.718;11.082;2022-12-18T13:12:04;13.50;;;7.63;;
37383;SDS011;23258;49.718;11.082;2022-12-18T13:14:47;15.60;;;8.47;;
37383;SDS011;23258;49.718;11.082;2022-12-18T13:17:28;11.53;;;7.80;;
37383;SDS011;23258;49.718;11.082;2022-12-18T13:20:06;12.03;;;7.57;;
37383;SDS011;23258;49.718;11.082;2022-12-18T13:22:37;14.67;;;8.13;;
37383;SDS011;23258;49.718;11.082;2022-12-18T13:27:58;13.33;;;7.47;;
37383;SDS011;23258;49.718;11.082;2022-12-18T13:30:45;13.53;;;7.30;;
37383;SDS011;23258;49.718;11.082;2022-12-18T13:36:16;11.00;;;8.60;;
37383;SDS011;23258;49.718;11.082;2022-12-18T13:38:47;11.23;;;7.67;;
37383;SDS011;23258;49.718;11.082;2022-12-18T13:41:23;15.00;;;8.97;;
37383;SDS011;23258;49.718;11.082;2022-12-18T13:43:55;13.60;;;8.80;;
37383;SDS011;23258;49.718;11.082;2022-12-18T13:46:27;13.20;;;9.40;;
37383;SDS011;23258;49.718;11.082;2022-12-18T13:48:58;13.60;;;8.57;;
37383;SDS011;23258;49.718;11.082;2022-12-18T13:51:32;13.50;;;8.60;;
37383;SDS011;23258;49.718;11.082;2022-12-18T13:54:05;12.50;;;8.23;;
37383;SDS011;23258;49.718;11.082;2022-12-18T13:56:42;11.07;;;7.53;;
37383;SDS011;23258;49.718;11.082;2022-12-18T13:59:17;9.77;;;7.07;;
37383;SDS011;23258;49.718;11.082;2022-12-18T14:01:51;9.73;;;7.43;;
37383;SDS011;23258;49.718;11.082;2022-12-18T14:04:23;10.77;;;7.53;;
37383;SDS011;23258;49.718;11.082;2022-12-18T14:06:54;12.53;;;8.23;;
37383;SDS011;23258;49.718;11.082;2022-12-18T14:09:26;10.43;;;7.23;;
37383;SDS011;23258;49.718;11.082;2022-12-18T14:11:58;12.97;;;8.17;;
37383;SDS011;23258;49.718;11.082;2022-12-18T14:14:44;9.77;;;7.37;;
37383;SDS011;23258;49.718;11.082;2022-12-18T14:17:16;13.30;;;7.80;;
37383;SDS011;23258;49.718;11.082;2022-12-18T14:19:47;9.80;;;7.53;;
37383;SDS011;23258;49.718;11.082;2022-12-18T14:22:18;12.93;;;8.37;;
37383;SDS011;23258;49.718;11.082;2022-12-18T14:24:51;12.00;;;8.60;;
37383;SDS011;23258;49.718;11.082;2022-12-18T14:27:36;12.03;;;8.63;;
37383;SDS011;23258;49.718;11.082;2022-12-18T14:33:01;11.57;;;7.43;;
37383;SDS011;23258;49.718;11.082;2022-12-18T14:35:31;11.70;;;7.33;;
37383;SDS011;23258;49.718;11.082;2022-12-18T14:38:16;10.73;;;7.80;;
37383;SDS011;23258;49.718;11.082;2022-12-18T14:40:47;10.20;;;7.27;;
37383;SDS011;23258;49.718;11.082;2022-12-18T14:43:17;10.80;;;8.53;;
37383;SDS011;23258;49.718;11.082;2022-12-18T14:45:46;11.57;;;8.03;;
37383;SDS011;23258;49.718;11.082;2022-12-18T14:48:19;10.70;;;7.83;;
37383;SDS011;23258;49.718;11.082;2022-12-18T14:50:59;10.77;;;8.57;;
37383;SDS011;23258;49.718;11.082;2022-12-18T14:53:34;14.83;;;8.20;;